Terminal Aerodrome Forecast
Issued by NWS

Home | Current Version | Previous Version | Text Only | Print | Product List | Glossary On
Versions: 1 2 3 4 5 6 7 8 9 10 11 12
340
FTUS44 KJAN 271741
TAFHKS
TAF
KHKS 271741Z 2718/2818 19014G22KT P6SM SCT035 BKN050
     FM271900 20014G22KT P6SM VCTS SCT040CB
     FM280100 18005KT P6SM VCSH BKN100
     FM280900 19003KT 4SM BR OVC009=

USA.gov is the U.S. government's official web portal to all federal, state and local government web resources and services.